CET,Max TemperatureF,Mean TemperatureF,Min TemperatureF,Max Dew PointF,MeanDew PointF,Min DewpointF,Max Humidity, Mean Humidity, Min Humidity, Max Sea Level PressureIn, Mean Sea Level PressureIn, Min Sea Level PressureIn, Max VisibilityMiles, Mean VisibilityMiles, Min VisibilityMiles, Max Wind SpeedMPH, Mean Wind SpeedMPH, Max Gust SpeedMPH,PrecipitationIn, CloudCover, Events, WindDirDegrees
2011-10-1,75,60,44,54,50,43,94,76,44,30.39,30.36,30.33,6.2,6.2,6.2,5,1,,0.00,,,199
2011-10-2,73,60,46,54,49,45,100,73,38,30.33,30.30,30.24,6.2,6.2,6.2,4,2,,0.00,,,163
2011-10-3,75,62,48,55,51,46,93,74,50,30.24,30.20,30.15,6.2,6.2,6.2,5,3,,0.00,,,138
2011-10-4,75,65,55,57,53,50,88,69,44,30.18,30.14,30.09,,,,13,5,,0.00,,,213
2011-10-5,66,62,57,54,53,50,77,71,60,30.18,30.14,30.12,6.2,6.2,6.2,14,8,,0.00,7,,254
2011-10-6,71,66,60,54,52,48,77,64,43,30.12,29.94,29.71,6.2,6.2,6.2,15,9,22,0.00,6,,216
2011-10-7,62,54,46,55,45,41,100,81,67,29.83,29.79,29.71,6.2,6.2,6.2,15,8,32,0.00,7,Rain,273
2011-10-8,50,47,44,45,42,39,93,81,71,29.86,29.79,29.74,6.2,6.2,6.2,18,11,28,0.00,7,Rain,271
2011-10-9,50,46,42,43,41,39,93,86,71,30.18,30.06,29.89,6.2,6.2,6.2,16,10,,0.00,7,Rain,289
2011-10-10,60,50,41,55,45,36,94,87,76,30.18,30.01,29.92,6.2,5.9,5.0,20,6,30,0.00,8,Rain,207
2011-10-11,64,62,59,55,53,52,82,75,68,29.98,29.96,29.95,6.2,6.2,6.2,20,16,26,0.00,7,Rain,257
2011-10-12,59,54,48,54,48,46,100,89,77,30.09,30.02,29.92,6.2,5.8,3.7,17,10,31,0.00,8,Rain,277
2011-10-13,51,46,42,45,41,37,100,81,58,30.39,30.26,30.12,6.2,6.2,6.2,16,7,,0.00,5,,302
2011-10-14,48,40,33,37,34,30,93,80,53,30.60,30.50,30.39,6.2,5.8,4.3,7,4,,0.00,3,,337
2011-10-15,51,40,28,37,32,27,100,80,50,30.60,30.53,30.48,6.2,6.2,6.2,6,2,,0.00,3,,118
2011-10-16,50,40,30,36,32,27,93,76,43,30.51,30.45,30.39,6.2,6.2,6.2,12,3,,0.00,,,139
2011-10-17,55,42,28,34,30,27,100,69,35,30.39,30.29,30.18,,,,12,4,,0.00,,,146
2011-10-18,62,48,35,45,38,30,87,70,48,30.18,30.02,29.86,6.2,6.2,6.2,12,6,,0.00,3,,148
2011-10-19,51,46,42,45,43,41,100,90,67,30.09,29.98,29.86,6.2,5.5,5.0,9,5,,0.00,8,Rain,274
2011-10-20,50,44,35,41,39,36,100,83,58,30.30,30.19,30.09,6.2,6.0,5.0,15,6,,0.00,6,Rain,262
2011-10-21,44,38,32,37,35,30,100,92,76,30.42,30.39,30.33,6.2,4.3,0.1,5,2,,0.00,3,Fog,161
2011-10-22,42,37,32,43,35,30,100,97,87,30.42,30.36,30.30,5.0,1.7,0.1,5,2,,0.00,7,Fog,213
2011-10-23,50,37,24,43,34,23,100,90,71,30.27,30.25,30.18,6.2,3.2,0.1,10,2,,0.00,7,Fog,108
2011-10-24,53,50,46,46,44,43,93,81,72,30.18,30.11,30.04,6.2,5.6,5.0,16,9,26,0.00,7,,109
2011-10-25,51,48,46,46,44,43,93,81,71,30.01,29.91,29.86,6.2,6.2,6.2,17,12,25,0.00,8,,118
2011-10-26,51,50,48,48,47,46,100,89,82,30.15,30.02,29.89,6.2,4.5,2.2,17,11,,0.00,8,Rain,136
2011-10-27,53,50,48,48,46,43,100,83,71,30.15,30.14,30.12,6.2,5.1,2.2,17,6,,0.00,8,Rain,116
2011-10-28,51,50,48,46,46,45,93,84,76,30.36,30.27,30.15,6.2,6.2,6.2,13,8,,0.00,8,,154
2011-10-29,53,50,48,46,45,43,87,81,67,30.39,30.36,30.33,6.2,6.0,5.0,5,3,,0.00,8,,130
2011-10-30,53,50,46,45,43,41,93,83,67,30.33,30.27,30.21,6.2,5.3,3.1,8,4,,0.00,7,,192
2011-10-31,55,47,39,48,42,37,100,92,72,30.24,30.20,30.15,5.0,2.6,0.5,4,1,,0.00,6,Fog,201